sensor_id;sensor_type;location;lat;lon;timestamp;P1;durP1;ratioP1;P2;durP2;ratioP2
23360;SDS011;11852;50.082;18.554;2023-03-23T00:00:07;29.0;;;18.0;;
23360;SDS011;11852;50.082;18.554;2023-03-23T00:01:15;28.0;;;18.0;;
23360;SDS011;11852;50.082;18.554;2023-03-23T00:02:25;28.0;;;18.0;;
23360;SDS011;11852;50.082;18.554;2023-03-23T00:03:34;30.0;;;19.0;;
23360;SDS011;11852;50.082;18.554;2023-03-23T00:04:41;31.0;;;19.0;;
23360;SDS011;11852;50.082;18.554;2023-03-23T00:05:51;33.0;;;19.0;;
23360;SDS011;11852;50.082;18.554;2023-03-23T00:07:02;32.0;;;20.0;;
23360;SDS011;11852;50.082;18.554;2023-03-23T00:08:10;31.0;;;19.0;;
23360;SDS011;11852;50.082;18.554;2023-03-23T00:09:17;33.0;;;21.0;;
23360;SDS011;11852;50.082;18.554;2023-03-23T00:10:25;30.0;;;20.0;;
23360;SDS011;11852;50.082;18.554;2023-03-23T00:11:37;32.0;;;21.0;;
23360;SDS011;11852;50.082;18.554;2023-03-23T00:12:45;37.0;;;23.0;;
23360;SDS011;11852;50.082;18.554;2023-03-23T00:13:52;34.0;;;21.0;;
23360;SDS011;11852;50.082;18.554;2023-03-23T00:15:03;34.0;;;22.0;;
23360;SDS011;11852;50.082;18.554;2023-03-23T00:16:14;37.0;;;23.0;;
23360;SDS011;11852;50.082;18.554;2023-03-23T00:17:21;37.0;;;22.0;;
23360;SDS011;11852;50.082;18.554;2023-03-23T00:18:29;38.0;;;22.0;;
23360;SDS011;11852;50.082;18.554;2023-03-23T00:19:36;38.0;;;23.0;;
23360;SDS011;11852;50.082;18.554;2023-03-23T00:20:46;42.0;;;23.0;;
23360;SDS011;11852;50.082;18.554;2023-03-23T00:21:53;36.0;;;23.0;;
23360;SDS011;11852;50.082;18.554;2023-03-23T00:23:00;38.0;;;22.0;;
23360;SDS011;11852;50.082;18.554;2023-03-23T00:25:27;41.0;;;24.0;;
23360;SDS011;11852;50.082;18.554;2023-03-23T00:26:35;40.0;;;24.0;;
23360;SDS011;11852;50.082;18.554;2023-03-23T00:27:41;43.0;;;25.0;;
23360;SDS011;11852;50.082;18.554;2023-03-23T00:28:53;44.0;;;25.0;;
23360;SDS011;11852;50.082;18.554;2023-03-23T00:30:01;40.0;;;24.0;;
23360;SDS011;11852;50.082;18.554;2023-03-23T00:31:09;44.0;;;25.0;;
23360;SDS011;11852;50.082;18.554;2023-03-23T00:32:15;43.0;;;27.0;;
23360;SDS011;11852;50.082;18.554;2023-03-23T00:33:23;45.0;;;27.0;;
23360;SDS011;11852;50.082;18.554;2023-03-23T00:34:35;43.0;;;27.0;;
23360;SDS011;11852;50.082;18.554;2023-03-23T00:35:42;42.0;;;27.0;;
23360;SDS011;11852;50.082;18.554;2023-03-23T00:36:51;42.0;;;27.0;;
23360;SDS011;11852;50.082;18.554;2023-03-23T00:38:02;44.0;;;28.0;;
23360;SDS011;11852;50.082;18.554;2023-03-23T00:39:22;46.0;;;28.0;;
23360;SDS011;11852;50.082;18.554;2023-03-23T00:40:29;47.0;;;29.0;;
23360;SDS011;11852;50.082;18.554;2023-03-23T00:41:37;45.0;;;27.0;;
23360;SDS011;11852;50.082;18.554;2023-03-23T00:42:47;43.0;;;27.0;;
23360;SDS011;11852;50.082;18.554;2023-03-23T00:43:55;45.0;;;26.0;;
23360;SDS011;11852;50.082;18.554;2023-03-23T00:45:02;41.0;;;25.0;;
23360;SDS011;11852;50.082;18.554;2023-03-23T00:46:09;41.0;;;26.0;;
23360;SDS011;11852;50.082;18.554;2023-03-23T00:47:17;34.0;;;21.0;;
23360;SDS011;11852;50.082;18.554;2023-03-23T00:48:25;33.0;;;21.0;;
23360;SDS011;11852;50.082;18.554;2023-03-23T00:49:32;35.0;;;20.0;;
23360;SDS011;11852;50.082;18.554;2023-03-23T00:50:39;33.0;;;20.0;;
23360;SDS011;11852;50.082;18.554;2023-03-23T00:51:46;34.0;;;21.0;;
23360;SDS011;11852;50.082;18.554;2023-03-23T00:52:54;35.0;;;20.0;;
23360;SDS011;11852;50.082;18.554;2023-03-23T00:54:04;31.0;;;19.0;;
23360;SDS011;11852;50.082;18.554;2023-03-23T00:55:14;28.0;;;18.0;;
23360;SDS011;11852;50.082;18.554;2023-03-23T00:56:27;31.0;;;19.0;;
23360;SDS011;11852;50.082;18.554;2023-03-23T00:57:41;29.0;;;18.0;;
23360;SDS011;11852;50.082;18.554;2023-03-23T00:58:48;29.0;;;18.0;;
23360;SDS011;11852;50.082;18.554;2023-03-23T00:59:56;28.0;;;18.0;;
23360;SDS011;11852;50.082;18.554;2023-03-23T01:01:03;34.0;;;20.0;;
23360;SDS011;11852;50.082;18.554;2023-03-23T01:02:11;35.0;;;20.0;;
23360;SDS011;11852;50.082;18.554;2023-03-23T01:03:18;32.0;;;18.0;;
23360;SDS011;11852;50.082;18.554;2023-03-23T01:04:26;30.0;;;18.0;;
23360;SDS011;11852;50.082;18.554;2023-03-23T01:05:34;33.0;;;19.0;;
23360;SDS011;11852;50.082;18.554;2023-03-23T01:06:41;31.0;;;19.0;;
23360;SDS011;11852;50.082;18.554;2023-03-23T01:07:48;31.0;;;18.0;;
23360;SDS011;11852;50.082;18.554;2023-03-23T01:08:56;43.0;;;22.0;;
23360;SDS011;11852;50.082;18.554;2023-03-23T01:10:04;35.0;;;19.0;;
23360;SDS011;11852;50.082;18.554;2023-03-23T01:11:14;37.0;;;21.0;;
23360;SDS011;11852;50.082;18.554;2023-03-23T01:12:21;37.0;;;19.0;;
23360;SDS011;11852;50.082;18.554;2023-03-23T01:13:29;36.0;;;20.0;;
23360;SDS011;11852;50.082;18.554;2023-03-23T01:14:37;35.0;;;19.0;;
23360;SDS011;11852;50.082;18.554;2023-03-23T01:15:44;37.0;;;19.0;;
23360;SDS011;11852;50.082;18.554;2023-03-23T01:16:51;31.0;;;16.0;;
23360;SDS011;11852;50.082;18.554;2023-03-23T01:18:01;32.0;;;18.0;;
23360;SDS011;11852;50.082;18.554;2023-03-23T01:19:09;32.0;;;17.0;;
23360;SDS011;11852;50.082;18.554;2023-03-23T01:20:24;30.0;;;17.0;;
23360;SDS011;11852;50.082;18.554;2023-03-23T01:21:30;29.0;;;17.0;;
23360;SDS011;11852;50.082;18.554;2023-03-23T01:22:38;27.0;;;16.0;;
23360;SDS011;11852;50.082;18.554;2023-03-23T01:23:46;24.0;;;14.0;;
23360;SDS011;11852;50.082;18.554;2023-03-23T01:24:56;25.0;;;15.0;;
23360;SDS011;11852;50.082;18.554;2023-03-23T01:26:05;23.0;;;15.0;;
23360;SDS011;11852;50.082;18.554;2023-03-23T01:27:14;23.0;;;14.0;;
23360;SDS011;11852;50.082;18.554;2023-03-23T01:28:22;20.0;;;13.0;;
23360;SDS011;11852;50.082;18.554;2023-03-23T01:29:35;20.0;;;13.0;;
23360;SDS011;11852;50.082;18.554;2023-03-23T01:31:01;22.0;;;14.0;;
23360;SDS011;11852;50.082;18.554;2023-03-23T01:32:07;24.0;;;15.0;;
23360;SDS011;11852;50.082;18.554;2023-03-23T01:33:14;22.0;;;13.0;;
23360;SDS011;11852;50.082;18.554;2023-03-23T01:34:21;23.0;;;15.0;;
23360;SDS011;11852;50.082;18.554;2023-03-23T01:35:29;22.0;;;13.0;;
23360;SDS011;11852;50.082;18.554;2023-03-23T01:36:36;24.0;;;14.0;;
23360;SDS011;11852;50.082;18.554;2023-03-23T01:37:43;20.0;;;12.0;;
23360;SDS011;11852;50.082;18.554;2023-03-23T01:38:52;22.0;;;13.0;;
23360;SDS011;11852;50.082;18.554;2023-03-23T01:40:08;20.0;;;13.0;;
23360;SDS011;11852;50.082;18.554;2023-03-23T01:41:16;22.0;;;13.0;;
23360;SDS011;11852;50.082;18.554;2023-03-23T01:42:23;24.0;;;14.0;;
23360;SDS011;11852;50.082;18.554;2023-03-23T01:43:29;21.0;;;13.0;;
23360;SDS011;11852;50.082;18.554;2023-03-23T01:45:46;23.0;;;13.0;;
23360;SDS011;11852;50.082;18.554;2023-03-23T01:46:55;21.0;;;13.0;;
23360;SDS011;11852;50.082;18.554;2023-03-23T01:48:04;20.0;;;13.0;;
23360;SDS011;11852;50.082;18.554;2023-03-23T01:49:14;20.0;;;12.0;;
23360;SDS011;11852;50.082;18.554;2023-03-23T01:50:23;20.0;;;13.0;;
23360;SDS011;11852;50.082;18.554;2023-03-23T01:51:31;21.0;;;13.0;;
23360;SDS011;11852;50.082;18.554;2023-03-23T01:52:41;18.0;;;12.0;;
23360;SDS011;11852;50.082;18.554;2023-03-23T01:53:51;19.0;;;11.0;;
23360;SDS011;11852;50.082;18.554;2023-03-23T01:54:55;26.0;;;13.0;;
23360;SDS011;11852;50.082;18.554;2023-03-23T01:56:02;22.0;;;12.0;;
23360;SDS011;11852;50.082;18.554;2023-03-23T01:57:12;22.0;;;12.0;;
23360;SDS011;11852;50.082;18.554;2023-03-23T01:58:23;17.0;;;10.0;;
23360;SDS011;11852;50.082;18.554;2023-03-23T01:59:29;18.0;;;11.0;;
23360;SDS011;11852;50.082;18.554;2023-03-23T02:00:36;18.0;;;12.0;;
23360;SDS011;11852;50.082;18.554;2023-03-23T02:01:44;18.0;;;11.0;;
23360;SDS011;11852;50.082;18.554;2023-03-23T02:02:51;15.0;;;10.0;;
23360;SDS011;11852;50.082;18.554;2023-03-23T02:04:01;17.0;;;11.0;;
23360;SDS011;11852;50.082;18.554;2023-03-23T02:05:10;19.0;;;11.0;;
23360;SDS011;11852;50.082;18.554;2023-03-23T02:06:20;22.0;;;13.0;;
23360;SDS011;11852;50.082;18.554;2023-03-23T02:07:27;28.0;;;15.0;;
23360;SDS011;11852;50.082;18.554;2023-03-23T02:08:34;32.0;;;17.0;;
23360;SDS011;11852;50.082;18.554;2023-03-23T02:09:42;28.0;;;15.0;;
23360;SDS011;11852;50.082;18.554;2023-03-23T02:10:49;23.0;;;14.0;;
23360;SDS011;11852;50.082;18.554;2023-03-23T02:11:56;19.0;;;12.0;;
23360;SDS011;11852;50.082;18.554;2023-03-23T02:13:04;19.0;;;12.0;;
23360;SDS011;11852;50.082;18.554;2023-03-23T02:14:11;19.0;;;11.0;;
23360;SDS011;11852;50.082;18.554;2023-03-23T02:15:18;17.0;;;11.0;;
23360;SDS011;11852;50.082;18.554;2023-03-23T02:16:29;17.0;;;11.0;;
23360;SDS011;11852;50.082;18.554;2023-03-23T02:24:09;15.0;;;10.0;;
23360;SDS011;11852;50.082;18.554;2023-03-23T02:26:35;20.0;;;11.0;;
23360;SDS011;11852;50.082;18.554;2023-03-23T02:30:19;16.0;;;11.0;;
23360;SDS011;11852;50.082;18.554;2023-03-23T02:40:06;16.0;;;10.0;;
23360;SDS011;11852;50.082;18.554;2023-03-23T02:41:15;16.0;;;10.0;;
23360;SDS011;11852;50.082;18.554;2023-03-23T02:42:26;17.0;;;9.0;;
23360;SDS011;11852;50.082;18.554;2023-03-23T02:43:37;15.0;;;10.0;;
23360;SDS011;11852;50.082;18.554;2023-03-23T02:44:46;17.0;;;9.0;;
23360;SDS011;11852;50.082;18.554;2023-03-23T02:45:53;16.0;;;10.0;;
23360;SDS011;11852;50.082;18.554;2023-03-23T02:47:08;17.0;;;11.0;;
23360;SDS011;11852;50.082;18.554;2023-03-23T02:48:14;16.0;;;10.0;;
23360;SDS011;11852;50.082;18.554;2023-03-23T02:49:22;18.0;;;10.0;;
23360;SDS011;11852;50.082;18.554;2023-03-23T02:50:30;13.0;;;8.0;;
23360;SDS011;11852;50.082;18.554;2023-03-23T02:51:37;17.0;;;10.0;;
23360;SDS011;11852;50.082;18.554;2023-03-23T02:52:48;15.0;;;8.0;;
23360;SDS011;11852;50.082;18.554;2023-03-23T02:53:56;17.0;;;9.0;;
23360;SDS011;11852;50.082;18.554;2023-03-23T02:55:03;16.0;;;10.0;;
23360;SDS011;11852;50.082;18.554;2023-03-23T02:56:12;15.0;;;8.0;;
23360;SDS011;11852;50.082;18.554;2023-03-23T02:57:19;16.0;;;10.0;;
23360;SDS011;11852;50.082;18.554;2023-03-23T02:58:30;15.0;;;9.0;;
23360;SDS011;11852;50.082;18.554;2023-03-23T02:59:38;15.0;;;9.0;;
23360;SDS011;11852;50.082;18.554;2023-03-23T03:00:45;13.0;;;8.0;;
23360;SDS011;11852;50.082;18.554;2023-03-23T03:01:57;15.0;;;8.0;;
23360;SDS011;11852;50.082;18.554;2023-03-23T03:03:02;13.0;;;8.0;;
23360;SDS011;11852;50.082;18.554;2023-03-23T03:04:11;13.0;;;9.0;;
23360;SDS011;11852;50.082;18.554;2023-03-23T03:06:36;16.0;;;10.0;;
23360;SDS011;11852;50.082;18.554;2023-03-23T03:09:02;13.0;;;8.0;;
23360;SDS011;11852;50.082;18.554;2023-03-23T03:11:26;14.0;;;8.0;;
23360;SDS011;11852;50.082;18.554;2023-03-23T03:17:43;11.0;;;7.0;;
23360;SDS011;11852;50.082;18.554;2023-03-23T03:20:07;16.0;;;7.0;;
23360;SDS011;11852;50.082;18.554;2023-03-23T03:21:14;14.0;;;8.0;;
23360;SDS011;11852;50.082;18.554;2023-03-23T03:22:21;14.0;;;8.0;;
23360;SDS011;11852;50.082;18.554;2023-03-23T03:23:28;14.0;;;8.0;;
23360;SDS011;11852;50.082;18.554;2023-03-23T03:24:39;12.0;;;8.0;;
23360;SDS011;11852;50.082;18.554;2023-03-23T03:25:46;12.0;;;7.0;;
23360;SDS011;11852;50.082;18.554;2023-03-23T03:26:55;12.0;;;8.0;;
23360;SDS011;11852;50.082;18.554;2023-03-23T03:28:03;15.0;;;8.0;;
23360;SDS011;11852;50.082;18.554;2023-03-23T03:29:10;15.0;;;9.0;;
23360;SDS011;11852;50.082;18.554;2023-03-23T03:30:21;16.0;;;8.0;;
23360;SDS011;11852;50.082;18.554;2023-03-23T03:31:31;16.0;;;8.0;;
23360;SDS011;11852;50.082;18.554;2023-03-23T03:32:38;15.0;;;8.0;;
23360;SDS011;11852;50.082;18.554;2023-03-23T03:33:44;12.0;;;7.0;;
23360;SDS011;11852;50.082;18.554;2023-03-23T03:34:56;13.0;;;8.0;;
23360;SDS011;11852;50.082;18.554;2023-03-23T03:36:03;12.0;;;8.0;;
23360;SDS011;11852;50.082;18.554;2023-03-23T03:37:10;14.0;;;8.0;;
23360;SDS011;11852;50.082;18.554;2023-03-23T03:38:17;14.0;;;9.0;;
23360;SDS011;11852;50.082;18.554;2023-03-23T03:39:37;13.0;;;8.0;;
23360;SDS011;11852;50.082;18.554;2023-03-23T03:40:44;15.0;;;9.0;;
23360;SDS011;11852;50.082;18.554;2023-03-23T03:41:51;15.0;;;9.0;;
23360;SDS011;11852;50.082;18.554;2023-03-23T03:42:59;15.0;;;8.0;;
23360;SDS011;11852;50.082;18.554;2023-03-23T03:44:06;14.0;;;7.0;;
23360;SDS011;11852;50.082;18.554;2023-03-23T03:45:18;16.0;;;8.0;;
23360;SDS011;11852;50.082;18.554;2023-03-23T03:46:25;14.0;;;9.0;;
23360;SDS011;11852;50.082;18.554;2023-03-23T03:47:32;13.0;;;8.0;;
23360;SDS011;11852;50.082;18.554;2023-03-23T03:48:44;16.0;;;8.0;;
23360;SDS011;11852;50.082;18.554;2023-03-23T03:49:54;17.0;;;8.0;;
23360;SDS011;11852;50.082;18.554;2023-03-23T03:51:06;16.0;;;8.0;;
23360;SDS011;11852;50.082;18.554;2023-03-23T03:52:13;14.0;;;9.0;;
23360;SDS011;11852;50.082;18.554;2023-03-23T03:53:40;15.0;;;8.0;;
23360;SDS011;11852;50.082;18.554;2023-03-23T03:54:53;14.0;;;8.0;;
23360;SDS011;11852;50.082;18.554;2023-03-23T03:56:00;15.0;;;9.0;;
23360;SDS011;11852;50.082;18.554;2023-03-23T03:57:10;15.0;;;9.0;;
23360;SDS011;11852;50.082;18.554;2023-03-23T03:58:22;13.0;;;9.0;;
23360;SDS011;11852;50.082;18.554;2023-03-23T03:59:29;18.0;;;9.0;;
23360;SDS011;11852;50.082;18.554;2023-03-23T04:00:39;18.0;;;10.0;;
23360;SDS011;11852;50.082;18.554;2023-03-23T04:01:46;15.0;;;9.0;;
23360;SDS011;11852;50.082;18.554;2023-03-23T04:02:56;16.0;;;9.0;;
23360;SDS011;11852;50.082;18.554;2023-03-23T04:04:04;16.0;;;9.0;;
23360;SDS011;11852;50.082;18.554;2023-03-23T04:05:11;15.0;;;10.0;;
23360;SDS011;11852;50.082;18.554;2023-03-23T04:06:18;18.0;;;9.0;;
23360;SDS011;11852;50.082;18.554;2023-03-23T04:07:33;17.0;;;9.0;;
23360;SDS011;11852;50.082;18.554;2023-03-23T04:08:41;19.0;;;9.0;;
23360;SDS011;11852;50.082;18.554;2023-03-23T04:09:49;15.0;;;9.0;;
23360;SDS011;11852;50.082;18.554;2023-03-23T04:11:01;17.0;;;9.0;;
23360;SDS011;11852;50.082;18.554;2023-03-23T04:12:09;16.0;;;8.0;;
23360;SDS011;11852;50.082;18.554;2023-03-23T04:13:17;16.0;;;9.0;;
23360;SDS011;11852;50.082;18.554;2023-03-23T04:14:23;20.0;;;10.0;;
23360;SDS011;11852;50.082;18.554;2023-03-23T04:15:31;15.0;;;9.0;;
23360;SDS011;11852;50.082;18.554;2023-03-23T04:16:38;19.0;;;9.0;;
23360;SDS011;11852;50.082;18.554;2023-03-23T04:17:46;16.0;;;9.0;;
23360;SDS011;11852;50.082;18.554;2023-03-23T04:19:01;17.0;;;10.0;;
23360;SDS011;11852;50.082;18.554;2023-03-23T04:20:09;17.0;;;10.0;;
23360;SDS011;11852;50.082;18.554;2023-03-23T04:21:19;15.0;;;10.0;;
23360;SDS011;11852;50.082;18.554;2023-03-23T04:22:52;16.0;;;9.0;;
23360;SDS011;11852;50.082;18.554;2023-03-23T04:24:02;17.0;;;11.0;;
23360;SDS011;11852;50.082;18.554;2023-03-23T04:25:09;17.0;;;9.0;;
23360;SDS011;11852;50.082;18.554;2023-03-23T04:26:19;16.0;;;9.0;;
23360;SDS011;11852;50.082;18.554;2023-03-23T04:27:27;17.0;;;9.0;;
23360;SDS011;11852;50.082;18.554;2023-03-23T04:28:37;17.0;;;9.0;;
23360;SDS011;11852;50.082;18.554;2023-03-23T04:29:45;14.0;;;8.0;;
23360;SDS011;11852;50.082;18.554;2023-03-23T04:30:54;17.0;;;9.0;;
23360;SDS011;11852;50.082;18.554;2023-03-23T04:32:05;15.0;;;9.0;;
23360;SDS011;11852;50.082;18.554;2023-03-23T04:33:15;14.0;;;8.0;;
23360;SDS011;11852;50.082;18.554;2023-03-23T04:34:22;16.0;;;9.0;;
23360;SDS011;11852;50.082;18.554;2023-03-23T04:35:30;16.0;;;9.0;;
23360;SDS011;11852;50.082;18.554;2023-03-23T04:36:37;14.0;;;8.0;;
23360;SDS011;11852;50.082;18.554;2023-03-23T04:37:44;13.0;;;8.0;;
23360;SDS011;11852;50.082;18.554;2023-03-23T04:38:51;14.0;;;9.0;;
23360;SDS011;11852;50.082;18.554;2023-03-23T04:40:00;15.0;;;9.0;;
23360;SDS011;11852;50.082;18.554;2023-03-23T04:41:07;15.0;;;9.0;;
23360;SDS011;11852;50.082;18.554;2023-03-23T04:42:15;15.0;;;9.0;;
23360;SDS011;11852;50.082;18.554;2023-03-23T04:43:29;16.0;;;9.0;;
23360;SDS011;11852;50.082;18.554;2023-03-23T04:44:36;16.0;;;9.0;;
23360;SDS011;11852;50.082;18.554;2023-03-23T04:45:44;14.0;;;8.0;;
23360;SDS011;11852;50.082;18.554;2023-03-23T04:46:52;14.0;;;9.0;;
23360;SDS011;11852;50.082;18.554;2023-03-23T04:48:08;16.0;;;9.0;;
23360;SDS011;11852;50.082;18.554;2023-03-23T04:49:20;18.0;;;10.0;;
23360;SDS011;11852;50.082;18.554;2023-03-23T04:50:31;13.0;;;8.0;;
23360;SDS011;11852;50.082;18.554;2023-03-23T04:51:41;15.0;;;8.0;;
23360;SDS011;11852;50.082;18.554;2023-03-23T04:52:48;16.0;;;8.0;;
23360;SDS011;11852;50.082;18.554;2023-03-23T04:53:55;17.0;;;8.0;;
23360;SDS011;11852;50.082;18.554;2023-03-23T04:55:02;14.0;;;9.0;;
23360;SDS011;11852;50.082;18.554;2023-03-23T04:56:09;16.0;;;8.0;;
23360;SDS011;11852;50.082;18.554;2023-03-23T04:57:19;17.0;;;8.0;;
23360;SDS011;11852;50.082;18.554;2023-03-23T04:58:26;14.0;;;8.0;;
23360;SDS011;11852;50.082;18.554;2023-03-23T04:59:33;14.0;;;7.0;;
23360;SDS011;11852;50.082;18.554;2023-03-23T05:00:40;14.0;;;7.0;;
23360;SDS011;11852;50.082;18.554;2023-03-23T05:01:47;12.0;;;8.0;;
23360;SDS011;11852;50.082;18.554;2023-03-23T05:03:07;15.0;;;8.0;;
23360;SDS011;11852;50.082;18.554;2023-03-23T05:04:19;12.0;;;7.0;;
23360;SDS011;11852;50.082;18.554;2023-03-23T05:05:27;12.0;;;8.0;;
23360;SDS011;11852;50.082;18.554;2023-03-23T05:06:33;15.0;;;8.0;;
23360;SDS011;11852;50.082;18.554;2023-03-23T05:07:41;16.0;;;8.0;;
23360;SDS011;11852;50.082;18.554;2023-03-23T05:08:55;15.0;;;8.0;;
23360;SDS011;11852;50.082;18.554;2023-03-23T05:10:03;14.0;;;8.0;;
23360;SDS011;11852;50.082;18.554;2023-03-23T05:11:13;15.0;;;8.0;;
23360;SDS011;11852;50.082;18.554;2023-03-23T05:13:27;15.0;;;9.0;;
23360;SDS011;11852;50.082;18.554;2023-03-23T05:14:34;14.0;;;8.0;;
23360;SDS011;11852;50.082;18.554;2023-03-23T05:15:44;16.0;;;9.0;;
23360;SDS011;11852;50.082;18.554;2023-03-23T05:17:01;14.0;;;8.0;;
23360;SDS011;11852;50.082;18.554;2023-03-23T05:18:12;12.0;;;8.0;;
23360;SDS011;11852;50.082;18.554;2023-03-23T05:19:20;15.0;;;8.0;;
23360;SDS011;11852;50.082;18.554;2023-03-23T05:20:30;14.0;;;9.0;;
23360;SDS011;11852;50.082;18.554;2023-03-23T05:21:38;13.0;;;8.0;;
23360;SDS011;11852;50.082;18.554;2023-03-23T05:22:48;13.0;;;8.0;;
23360;SDS011;11852;50.082;18.554;2023-03-23T05:23:56;12.0;;;7.0;;
23360;SDS011;11852;50.082;18.554;2023-03-23T05:25:07;13.0;;;7.0;;
23360;SDS011;11852;50.082;18.554;2023-03-23T05:26:19;15.0;;;7.0;;
23360;SDS011;11852;50.082;18.554;2023-03-23T05:27:29;12.0;;;7.0;;
23360;SDS011;11852;50.082;18.554;2023-03-23T05:28:36;13.0;;;7.0;;
23360;SDS011;11852;50.082;18.554;2023-03-23T05:29:49;12.0;;;7.0;;
23360;SDS011;11852;50.082;18.554;2023-03-23T05:30:56;12.0;;;7.0;;
23360;SDS011;11852;50.082;18.554;2023-03-23T05:32:04;13.0;;;7.0;;
23360;SDS011;11852;50.082;18.554;2023-03-23T05:33:11;11.0;;;6.0;;
23360;SDS011;11852;50.082;18.554;2023-03-23T05:34:18;13.0;;;7.0;;
23360;SDS011;11852;50.082;18.554;2023-03-23T05:35:25;10.0;;;6.0;;
23360;SDS011;11852;50.082;18.554;2023-03-23T05:36:32;12.0;;;6.0;;
23360;SDS011;11852;50.082;18.554;2023-03-23T05:37:39;11.0;;;7.0;;
23360;SDS011;11852;50.082;18.554;2023-03-23T05:38:46;13.0;;;7.0;;
23360;SDS011;11852;50.082;18.554;2023-03-23T05:39:54;13.0;;;7.0;;
23360;SDS011;11852;50.082;18.554;2023-03-23T05:41:04;13.0;;;8.0;;
23360;SDS011;11852;50.082;18.554;2023-03-23T05:42:14;13.0;;;8.0;;
23360;SDS011;11852;50.082;18.554;2023-03-23T05:43:28;13.0;;;7.0;;
23360;SDS011;11852;50.082;18.554;2023-03-23T05:44:36;13.0;;;7.0;;
23360;SDS011;11852;50.082;18.554;2023-03-23T05:45:46;13.0;;;7.0;;
23360;SDS011;11852;50.082;18.554;2023-03-23T05:46:52;13.0;;;7.0;;
23360;SDS011;11852;50.082;18.554;2023-03-23T05:47:59;14.0;;;8.0;;
23360;SDS011;11852;50.082;18.554;2023-03-23T05:49:14;13.0;;;7.0;;
23360;SDS011;11852;50.082;18.554;2023-03-23T05:50:25;15.0;;;8.0;;
23360;SDS011;11852;50.082;18.554;2023-03-23T05:51:32;18.0;;;8.0;;
23360;SDS011;11852;50.082;18.554;2023-03-23T05:52:40;17.0;;;8.0;;
23360;SDS011;11852;50.082;18.554;2023-03-23T05:53:47;17.0;;;8.0;;
23360;SDS011;11852;50.082;18.554;2023-03-23T05:54:59;17.0;;;9.0;;
23360;SDS011;11852;50.082;18.554;2023-03-23T05:56:10;17.0;;;9.0;;
23360;SDS011;11852;50.082;18.554;2023-03-23T05:57:17;21.0;;;10.0;;
23360;SDS011;11852;50.082;18.554;2023-03-23T05:58:27;18.0;;;9.0;;
23360;SDS011;11852;50.082;18.554;2023-03-23T05:59:38;18.0;;;9.0;;
23360;SDS011;11852;50.082;18.554;2023-03-23T06:00:52;23.0;;;10.0;;
23360;SDS011;11852;50.082;18.554;2023-03-23T06:02:03;19.0;;;10.0;;
23360;SDS011;11852;50.082;18.554;2023-03-23T06:03:10;21.0;;;10.0;;
23360;SDS011;11852;50.082;18.554;2023-03-23T06:04:23;23.0;;;10.0;;
23360;SDS011;11852;50.082;18.554;2023-03-23T06:05:31;21.0;;;11.0;;
23360;SDS011;11852;50.082;18.554;2023-03-23T06:06:38;25.0;;;13.0;;
23360;SDS011;11852;50.082;18.554;2023-03-23T06:08:03;22.0;;;12.0;;
23360;SDS011;11852;50.082;18.554;2023-03-23T06:09:12;25.0;;;13.0;;
23360;SDS011;11852;50.082;18.554;2023-03-23T06:10:20;24.0;;;12.0;;
23360;SDS011;11852;50.082;18.554;2023-03-23T06:11:41;25.0;;;13.0;;
23360;SDS011;11852;50.082;18.554;2023-03-23T06:12:49;27.0;;;14.0;;
23360;SDS011;11852;50.082;18.554;2023-03-23T06:13:57;32.0;;;14.0;;
23360;SDS011;11852;50.082;18.554;2023-03-23T06:15:08;28.0;;;15.0;;
23360;SDS011;11852;50.082;18.554;2023-03-23T06:16:15;30.0;;;14.0;;
23360;SDS011;11852;50.082;18.554;2023-03-23T06:17:28;27.0;;;14.0;;
23360;SDS011;11852;50.082;18.554;2023-03-23T06:18:35;30.0;;;15.0;;
23360;SDS011;11852;50.082;18.554;2023-03-23T06:19:43;28.0;;;14.0;;
23360;SDS011;11852;50.082;18.554;2023-03-23T06:21:01;24.0;;;13.0;;
23360;SDS011;11852;50.082;18.554;2023-03-23T06:22:09;26.0;;;13.0;;
23360;SDS011;11852;50.082;18.554;2023-03-23T06:23:16;26.0;;;15.0;;
23360;SDS011;11852;50.082;18.554;2023-03-23T06:24:23;24.0;;;14.0;;
23360;SDS011;11852;50.082;18.554;2023-03-23T06:25:36;27.0;;;13.0;;
23360;SDS011;11852;50.082;18.554;2023-03-23T06:26:46;24.0;;;12.0;;
23360;SDS011;11852;50.082;18.554;2023-03-23T06:27:57;28.0;;;15.0;;
23360;SDS011;11852;50.082;18.554;2023-03-23T06:29:22;24.0;;;13.0;;
23360;SDS011;11852;50.082;18.554;2023-03-23T06:30:35;28.0;;;13.0;;
23360;SDS011;11852;50.082;18.554;2023-03-23T06:31:46;25.0;;;13.0;;
23360;SDS011;11852;50.082;18.554;2023-03-23T06:32:51;24.0;;;12.0;;
23360;SDS011;11852;50.082;18.554;2023-03-23T06:33:59;23.0;;;12.0;;
23360;SDS011;11852;50.082;18.554;2023-03-23T06:35:08;22.0;;;11.0;;
23360;SDS011;11852;50.082;18.554;2023-03-23T06:36:14;23.0;;;13.0;;
23360;SDS011;11852;50.082;18.554;2023-03-23T06:37:33;21.0;;;11.0;;
23360;SDS011;11852;50.082;18.554;2023-03-23T06:39:06;21.0;;;11.0;;
23360;SDS011;11852;50.082;18.554;2023-03-23T06:40:14;18.0;;;10.0;;
23360;SDS011;11852;50.082;18.554;2023-03-23T06:41:32;20.0;;;10.0;;
23360;SDS011;11852;50.082;18.554;2023-03-23T06:42:46;19.0;;;10.0;;
23360;SDS011;11852;50.082;18.554;2023-03-23T06:43:54;18.0;;;9.0;;
23360;SDS011;11852;50.082;18.554;2023-03-23T06:45:19;17.0;;;9.0;;
23360;SDS011;11852;50.082;18.554;2023-03-23T06:46:26;20.0;;;9.0;;
23360;SDS011;11852;50.082;18.554;2023-03-23T06:47:33;17.0;;;9.0;;
23360;SDS011;11852;50.082;18.554;2023-03-23T06:48:41;17.0;;;10.0;;
23360;SDS011;11852;50.082;18.554;2023-03-23T06:49:48;17.0;;;9.0;;
23360;SDS011;11852;50.082;18.554;2023-03-23T06:50:55;16.0;;;9.0;;
23360;SDS011;11852;50.082;18.554;2023-03-23T06:52:05;17.0;;;9.0;;
23360;SDS011;11852;50.082;18.554;2023-03-23T06:53:13;17.0;;;9.0;;
23360;SDS011;11852;50.082;18.554;2023-03-23T06:54:21;14.0;;;8.0;;
23360;SDS011;11852;50.082;18.554;2023-03-23T06:55:28;17.0;;;8.0;;
23360;SDS011;11852;50.082;18.554;2023-03-23T06:56:38;16.0;;;8.0;;
23360;SDS011;11852;50.082;18.554;2023-03-23T06:57:49;14.0;;;9.0;;
23360;SDS011;11852;50.082;18.554;2023-03-23T06:59:00;17.0;;;9.0;;
23360;SDS011;11852;50.082;18.554;2023-03-23T07:00:10;17.0;;;9.0;;
23360;SDS011;11852;50.082;18.554;2023-03-23T07:01:28;17.0;;;9.0;;
23360;SDS011;11852;50.082;18.554;2023-03-23T07:02:35;13.0;;;7.0;;
23360;SDS011;11852;50.082;18.554;2023-03-23T07:03:42;17.0;;;8.0;;
23360;SDS011;11852;50.082;18.554;2023-03-23T07:04:50;15.0;;;8.0;;
23360;SDS011;11852;50.082;18.554;2023-03-23T07:05:59;13.0;;;8.0;;
23360;SDS011;11852;50.082;18.554;2023-03-23T07:07:10;19.0;;;9.0;;
23360;SDS011;11852;50.082;18.554;2023-03-23T07:08:16;16.0;;;9.0;;
23360;SDS011;11852;50.082;18.554;2023-03-23T07:09:26;15.0;;;8.0;;
23360;SDS011;11852;50.082;18.554;2023-03-23T07:10:33;14.0;;;9.0;;
23360;SDS011;11852;50.082;18.554;2023-03-23T07:11:43;15.0;;;8.0;;
23360;SDS011;11852;50.082;18.554;2023-03-23T07:12:51;17.0;;;9.0;;
23360;SDS011;11852;50.082;18.554;2023-03-23T07:13:59;14.0;;;8.0;;
23360;SDS011;11852;50.082;18.554;2023-03-23T07:15:06;15.0;;;9.0;;
23360;SDS011;11852;50.082;18.554;2023-03-23T07:16:13;15.0;;;9.0;;
23360;SDS011;11852;50.082;18.554;2023-03-23T07:17:21;18.0;;;9.0;;
23360;SDS011;11852;50.082;18.554;2023-03-23T07:18:28;18.0;;;9.0;;
23360;SDS011;11852;50.082;18.554;2023-03-23T07:19:37;17.0;;;9.0;;
23360;SDS011;11852;50.082;18.554;2023-03-23T07:20:50;16.0;;;9.0;;
23360;SDS011;11852;50.082;18.554;2023-03-23T07:21:58;16.0;;;9.0;;
23360;SDS011;11852;50.082;18.554;2023-03-23T07:23:05;18.0;;;9.0;;
23360;SDS011;11852;50.082;18.554;2023-03-23T07:24:13;17.0;;;9.0;;
23360;SDS011;11852;50.082;18.554;2023-03-23T07:25:23;16.0;;;10.0;;
23360;SDS011;11852;50.082;18.554;2023-03-23T07:26:30;19.0;;;10.0;;